sensor_id;sensor_type;location;lat;lon;timestamp;pressure;altitude;pressure_sealevel;temperature;humidity
60897;BME280;46749;32.932;-117.130;2023-02-03T00:01:03;101993.38;;;14.50;49.57
60897;BME280;46749;32.932;-117.130;2023-02-03T00:03:30;101989.94;;;14.51;49.74
60897;BME280;46749;32.932;-117.130;2023-02-03T00:05:56;101995.16;;;14.51;49.48
60897;BME280;46749;32.932;-117.130;2023-02-03T00:08:22;101996.97;;;14.52;49.61
60897;BME280;46749;32.932;-117.130;2023-02-03T00:10:48;101999.50;;;14.50;49.70
60897;BME280;46749;32.932;-117.130;2023-02-03T00:13:15;101982.91;;;14.50;49.80
60897;BME280;46749;32.932;-117.130;2023-02-03T00:15:42;102004.72;;;14.50;49.67
60897;BME280;46749;32.932;-117.130;2023-02-03T00:18:08;101998.59;;;14.50;49.55
60897;BME280;46749;32.932;-117.130;2023-02-03T00:20:34;101998.59;;;14.50;49.54
60897;BME280;46749;32.932;-117.130;2023-02-03T00:23:08;101995.16;;;14.51;49.74
60897;BME280;46749;32.932;-117.130;2023-02-03T00:25:35;101992.53;;;14.51;49.63
60897;BME280;46749;32.932;-117.130;2023-02-03T00:28:02;101999.50;;;14.50;49.39
60897;BME280;46749;32.932;-117.130;2023-02-03T00:30:28;101988.97;;;14.49;49.96
60897;BME280;46749;32.932;-117.130;2023-02-03T00:32:55;101988.09;;;14.48;49.57
60897;BME280;46749;32.932;-117.130;2023-02-03T00:35:21;101975.84;;;14.47;49.73
60897;BME280;46749;32.932;-117.130;2023-02-03T00:37:51;101985.47;;;14.48;49.62
60897;BME280;46749;32.932;-117.130;2023-02-03T00:40:19;101998.56;;;14.48;49.61
60897;BME280;46749;32.932;-117.130;2023-02-03T00:42:45;101980.31;;;14.50;49.53
60897;BME280;46749;32.932;-117.130;2023-02-03T00:45:11;101985.53;;;14.50;49.66
60897;BME280;46749;32.932;-117.130;2023-02-03T00:47:38;101980.31;;;14.50;49.58
60897;BME280;46749;32.932;-117.130;2023-02-03T00:50:05;101994.25;;;14.50;49.51
60897;BME280;46749;32.932;-117.130;2023-02-03T00:52:32;101977.69;;;14.50;49.63
60897;BME280;46749;32.932;-117.130;2023-02-03T00:54:58;101957.66;;;14.50;49.61
60897;BME280;46749;32.932;-117.130;2023-02-03T00:57:24;101953.31;;;14.51;49.38
60897;BME280;46749;32.932;-117.130;2023-02-03T00:59:50;101941.09;;;14.50;49.52
60897;BME280;46749;32.932;-117.130;2023-02-03T01:02:17;101951.56;;;14.50;49.18
60897;BME280;46749;32.932;-117.130;2023-02-03T01:04:43;101950.72;;;14.51;49.36
60897;BME280;46749;32.932;-117.130;2023-02-03T01:07:09;101922.78;;;14.50;49.37
60897;BME280;46749;32.932;-117.130;2023-02-03T01:09:36;101905.38;;;14.50;49.38
60897;BME280;46749;32.932;-117.130;2023-02-03T01:12:05;101899.28;;;14.50;49.42
60897;BME280;46749;32.932;-117.130;2023-02-03T01:14:32;101901.03;;;14.51;49.39
60897;BME280;46749;32.932;-117.130;2023-02-03T01:16:59;101901.03;;;14.51;49.32
60897;BME280;46749;32.932;-117.130;2023-02-03T01:19:26;101905.38;;;14.50;49.45
60897;BME280;46749;32.932;-117.130;2023-02-03T01:21:52;101901.88;;;14.50;49.36
60897;BME280;46749;32.932;-117.130;2023-02-03T01:24:18;101898.44;;;14.51;49.30
60897;BME280;46749;32.932;-117.130;2023-02-03T01:26:44;101897.53;;;14.50;49.27
60897;BME280;46749;32.932;-117.130;2023-02-03T01:29:11;101904.53;;;14.51;49.10
60897;BME280;46749;32.932;-117.130;2023-02-03T01:31:39;101910.63;;;14.50;49.15
60897;BME280;46749;32.932;-117.130;2023-02-03T01:34:07;101901.03;;;14.51;48.94
60897;BME280;46749;32.932;-117.130;2023-02-03T01:36:36;101906.28;;;14.51;49.17
60897;BME280;46749;32.932;-117.130;2023-02-03T01:39:03;101913.31;;;14.52;48.97
60897;BME280;46749;32.932;-117.130;2023-02-03T01:41:32;101913.31;;;14.52;48.91
60897;BME280;46749;32.932;-117.130;2023-02-03T01:44:00;101922.03;;;14.52;49.18
60897;BME280;46749;32.932;-117.130;2023-02-03T01:46:36;101921.31;;;14.56;49.16
60897;BME280;46749;32.932;-117.130;2023-02-03T01:49:07;101917.94;;;14.59;48.93
60897;BME280;46749;32.932;-117.130;2023-02-03T01:51:37;101920.59;;;14.61;49.11
60897;BME280;46749;32.932;-117.130;2023-02-03T01:54:07;101925.88;;;14.62;49.37
60897;BME280;46749;32.932;-117.130;2023-02-03T01:56:38;101932.00;;;14.63;49.52
60897;BME280;46749;32.932;-117.130;2023-02-03T01:59:05;101935.50;;;14.63;49.57
60897;BME280;46749;32.932;-117.130;2023-02-03T02:01:32;101936.47;;;14.65;49.61
60897;BME280;46749;32.932;-117.130;2023-02-03T02:04:00;101933.91;;;14.67;49.55
60897;BME280;46749;32.932;-117.130;2023-02-03T02:06:27;101929.59;;;14.67;49.74
60897;BME280;46749;32.932;-117.130;2023-02-03T02:08:54;101916.50;;;14.67;49.88
60897;BME280;46749;32.932;-117.130;2023-02-03T02:11:22;101920.00;;;14.68;49.64
60897;BME280;46749;32.932;-117.130;2023-02-03T02:13:50;101920.91;;;14.68;50.00
60897;BME280;46749;32.932;-117.130;2023-02-03T02:33:33;101900.34;;;14.77;50.07
60897;BME280;46749;32.932;-117.130;2023-02-03T02:39:19;101890.69;;;14.76;50.20
60897;BME280;46749;32.932;-117.130;2023-02-03T02:41:51;101884.66;;;14.77;50.19
60897;BME280;46749;32.932;-117.130;2023-02-03T02:44:39;101893.53;;;14.82;50.25
60897;BME280;46749;32.932;-117.130;2023-02-03T02:47:16;101890.22;;;14.87;50.47
60897;BME280;46749;32.932;-117.130;2023-02-03T02:52:18;101884.19;;;14.89;50.15
60897;BME280;46749;32.932;-117.130;2023-02-03T02:54:50;101883.31;;;14.89;49.82
60897;BME280;46749;32.932;-117.130;2023-02-03T02:57:19;101888.53;;;14.89;49.97
60897;BME280;46749;32.932;-117.130;2023-02-03T02:59:47;101885.13;;;14.90;49.92
60897;BME280;46749;32.932;-117.130;2023-02-03T03:02:13;101888.66;;;14.92;49.98
60897;BME280;46749;32.932;-117.130;2023-02-03T03:04:41;101894.78;;;14.92;49.80
60897;BME280;46749;32.932;-117.130;2023-02-03T03:07:14;101892.19;;;14.92;50.02
60897;BME280;46749;32.932;-117.130;2023-02-03T03:09:55;101908.81;;;14.94;50.33
60897;BME280;46749;32.932;-117.130;2023-02-03T03:12:30;101907.03;;;14.93;50.10
60897;BME280;46749;32.932;-117.130;2023-02-03T03:15:04;101902.75;;;14.95;49.98
60897;BME280;46749;32.932;-117.130;2023-02-03T03:17:36;101908.94;;;14.97;50.05
60897;BME280;46749;32.932;-117.130;2023-02-03T03:20:10;101895.84;;;14.97;50.22
60897;BME280;46749;32.932;-117.130;2023-02-03T03:22:41;101901.13;;;14.99;50.15
60897;BME280;46749;32.932;-117.130;2023-02-03T03:25:16;101904.59;;;14.98;50.03
60897;BME280;46749;32.932;-117.130;2023-02-03T03:27:49;101901.13;;;14.99;50.24
60897;BME280;46749;32.932;-117.130;2023-02-03T03:30:21;101901.13;;;14.99;49.99
60897;BME280;46749;32.932;-117.130;2023-02-03T03:32:49;101897.69;;;15.00;49.93
60897;BME280;46749;32.932;-117.130;2023-02-03T03:35:16;101897.81;;;15.03;49.79
60897;BME280;46749;32.932;-117.130;2023-02-03T03:38:03;101898.69;;;15.03;50.15
60897;BME280;46749;32.932;-117.130;2023-02-03T03:40:40;101898.69;;;15.03;50.38
60897;BME280;46749;32.932;-117.130;2023-02-03T03:43:18;101896.09;;;15.03;50.12
60897;BME280;46749;32.932;-117.130;2023-02-03T03:51:04;101905.75;;;15.06;50.09
60897;BME280;46749;32.932;-117.130;2023-02-03T03:53:33;101906.69;;;15.08;50.22
60897;BME280;46749;32.932;-117.130;2023-02-03T03:56:03;101911.13;;;15.09;50.23
60897;BME280;46749;32.932;-117.130;2023-02-03T03:58:32;101902.38;;;15.08;50.38
60897;BME280;46749;32.932;-117.130;2023-02-03T04:01:03;101890.09;;;15.07;50.37
60897;BME280;46749;32.932;-117.130;2023-02-03T04:03:43;101896.22;;;15.08;50.35
60897;BME280;46749;32.932;-117.130;2023-02-03T04:06:11;101897.19;;;15.10;50.07
60897;BME280;46749;32.932;-117.130;2023-02-03T04:08:38;101898.97;;;15.11;50.10
60897;BME280;46749;32.932;-117.130;2023-02-03T04:11:05;101898.13;;;15.12;50.08
60897;BME280;46749;32.932;-117.130;2023-02-03T04:13:31;101892.91;;;15.12;50.24
60897;BME280;46749;32.932;-117.130;2023-02-03T04:15:57;101893.78;;;15.13;50.41
60897;BME280;46749;32.932;-117.130;2023-02-03T04:18:24;101887.66;;;15.12;50.09
60897;BME280;46749;32.932;-117.130;2023-02-03T04:20:50;101890.28;;;15.12;50.05
60897;BME280;46749;32.932;-117.130;2023-02-03T04:23:16;101889.44;;;15.13;49.95
60897;BME280;46749;32.932;-117.130;2023-02-03T04:25:43;101882.56;;;15.15;50.08
60897;BME280;46749;32.932;-117.130;2023-02-03T04:28:09;101875.66;;;15.17;49.78
60897;BME280;46749;32.932;-117.130;2023-02-03T04:30:35;101871.31;;;15.18;50.27
60897;BME280;46749;32.932;-117.130;2023-02-03T04:33:02;101874.81;;;15.18;50.23
60897;BME280;46749;32.932;-117.130;2023-02-03T04:35:28;101866.97;;;15.18;50.06
60897;BME280;46749;32.932;-117.130;2023-02-03T04:37:54;101865.19;;;15.17;50.12
60897;BME280;46749;32.932;-117.130;2023-02-03T04:40:21;101866.97;;;15.18;49.83
60897;BME280;46749;32.932;-117.130;2023-02-03T04:42:47;101870.50;;;15.20;49.99
60897;BME280;46749;32.932;-117.130;2023-02-03T04:45:14;101876.72;;;15.22;50.32
60897;BME280;46749;32.932;-117.130;2023-02-03T04:47:40;101871.47;;;15.22;50.13
60897;BME280;46749;32.932;-117.130;2023-02-03T04:50:07;101867.09;;;15.21;50.03
60897;BME280;46749;32.932;-117.130;2023-02-03T04:52:33;101861.84;;;15.21;50.46
60897;BME280;46749;32.932;-117.130;2023-02-03T04:54:59;101860.13;;;15.22;50.23
60897;BME280;46749;32.932;-117.130;2023-02-03T04:57:26;101858.38;;;15.22;50.20
60897;BME280;46749;32.932;-117.130;2023-02-03T04:59:52;101861.94;;;15.24;49.93
60897;BME280;46749;32.932;-117.130;2023-02-03T05:02:19;101863.72;;;15.25;50.05
60897;BME280;46749;32.932;-117.130;2023-02-03T05:04:45;101867.22;;;15.26;50.20
60897;BME280;46749;32.932;-117.130;2023-02-03T05:07:11;101857.63;;;15.26;50.18
60897;BME280;46749;32.932;-117.130;2023-02-03T05:09:37;101860.25;;;15.26;50.24
60897;BME280;46749;32.932;-117.130;2023-02-03T05:12:04;101861.16;;;15.27;50.13
60897;BME280;46749;32.932;-117.130;2023-02-03T05:14:30;101861.16;;;15.27;50.17
60897;BME280;46749;32.932;-117.130;2023-02-03T05:16:57;101854.22;;;15.27;49.78
60897;BME280;46749;32.932;-117.130;2023-02-03T05:19:23;101855.16;;;15.29;50.01
60897;BME280;46749;32.932;-117.130;2023-02-03T05:21:49;101854.25;;;15.29;50.07
60897;BME280;46749;32.932;-117.130;2023-02-03T05:24:16;101850.81;;;15.30;50.08
60897;BME280;46749;32.932;-117.130;2023-02-03T05:26:42;101844.69;;;15.29;50.08
60897;BME280;46749;32.932;-117.130;2023-02-03T05:29:08;101857.75;;;15.29;49.96
60897;BME280;46749;32.932;-117.130;2023-02-03T05:31:36;101861.28;;;15.30;50.13
60897;BME280;46749;32.932;-117.130;2023-02-03T05:34:02;101869.16;;;15.31;50.27
60897;BME280;46749;32.932;-117.130;2023-02-03T05:36:29;101863.94;;;15.31;49.88
60897;BME280;46749;32.932;-117.130;2023-02-03T05:38:55;101866.59;;;15.33;50.02
60897;BME280;46749;32.932;-117.130;2023-02-03T05:41:22;101867.47;;;15.33;49.96
60897;BME280;46749;32.932;-117.130;2023-02-03T05:44:06;101871.03;;;15.34;49.89
60897;BME280;46749;32.932;-117.130;2023-02-03T05:46:32;101875.34;;;15.33;49.98
60897;BME280;46749;32.932;-117.130;2023-02-03T05:48:59;101872.72;;;15.33;50.24
60897;BME280;46749;32.932;-117.130;2023-02-03T05:51:25;101870.09;;;15.33;50.27
60897;BME280;46749;32.932;-117.130;2023-02-03T05:53:51;101866.69;;;15.34;49.89
60897;BME280;46749;32.932;-117.130;2023-02-03T05:56:18;101857.97;;;15.35;49.94
60897;BME280;46749;32.932;-117.130;2023-02-03T05:58:44;101856.25;;;15.36;50.07
60897;BME280;46749;32.932;-117.130;2023-02-03T06:01:10;101857.13;;;15.36;50.15
60897;BME280;46749;32.932;-117.130;2023-02-03T06:03:36;101851.06;;;15.37;50.08
60897;BME280;46749;32.932;-117.130;2023-02-03T06:06:03;101859.75;;;15.36;50.10
60897;BME280;46749;32.932;-117.130;2023-02-03T06:08:29;101849.28;;;15.36;49.96
60897;BME280;46749;32.932;-117.130;2023-02-03T06:10:58;101862.38;;;15.36;50.13
60897;BME280;46749;32.932;-117.130;2023-02-03T06:13:25;101865.00;;;15.36;50.12
60897;BME280;46749;32.932;-117.130;2023-02-03T06:15:52;101858.88;;;15.36;49.91
60897;BME280;46749;32.932;-117.130;2023-02-03T06:18:19;101862.38;;;15.36;49.82
60897;BME280;46749;32.932;-117.130;2023-02-03T06:20:45;101872.84;;;15.36;49.74
60897;BME280;46749;32.932;-117.130;2023-02-03T06:23:11;101865.84;;;15.35;49.94
60897;BME280;46749;32.932;-117.130;2023-02-03T06:25:37;101871.06;;;15.35;49.58
60897;BME280;46749;32.932;-117.130;2023-02-03T06:28:04;101864.06;;;15.34;49.77
60897;BME280;46749;32.932;-117.130;2023-02-03T06:30:30;101857.00;;;15.33;49.70
60897;BME280;46749;32.932;-117.130;2023-02-03T06:32:56;101862.25;;;15.33;49.53
60897;BME280;46749;32.932;-117.130;2023-02-03T06:35:22;101861.38;;;15.33;49.71
60897;BME280;46749;32.932;-117.130;2023-02-03T06:37:48;101866.59;;;15.33;49.62
60897;BME280;46749;32.932;-117.130;2023-02-03T06:40:15;101882.31;;;15.33;49.51
60897;BME280;46749;32.932;-117.130;2023-02-03T06:42:45;101880.56;;;15.33;49.61
60897;BME280;46749;32.932;-117.130;2023-02-03T06:45:12;101877.91;;;15.32;49.48
60897;BME280;46749;32.932;-117.130;2023-02-03T06:47:42;101880.53;;;15.32;49.70
60897;BME280;46749;32.932;-117.130;2023-02-03T06:50:10;101885.75;;;15.32;49.64
60897;BME280;46749;32.932;-117.130;2023-02-03T06:52:36;101890.09;;;15.31;49.34
60897;BME280;46749;32.932;-117.130;2023-02-03T06:55:03;101889.22;;;15.31;49.51
60897;BME280;46749;32.932;-117.130;2023-02-03T06:57:30;101886.59;;;15.31;49.39
60897;BME280;46749;32.932;-117.130;2023-02-03T06:59:56;101892.72;;;15.31;49.53
60897;BME280;46749;32.932;-117.130;2023-02-03T07:02:22;101893.56;;;15.30;49.55
60897;BME280;46749;32.932;-117.130;2023-02-03T07:04:49;101880.47;;;15.30;49.55
60897;BME280;46749;32.932;-117.130;2023-02-03T07:07:16;101890.94;;;15.30;49.61
60897;BME280;46749;32.932;-117.130;2023-02-03T07:09:42;101890.06;;;15.30;49.52
60897;BME280;46749;32.932;-117.130;2023-02-03T07:12:08;101897.03;;;15.29;49.31
60897;BME280;46749;32.932;-117.130;2023-02-03T07:14:35;101892.63;;;15.28;49.13
60897;BME280;46749;32.932;-117.130;2023-02-03T07:17:02;101901.38;;;15.29;49.18
60897;BME280;46749;32.932;-117.130;2023-02-03T07:19:28;101890.00;;;15.28;49.17
60897;BME280;46749;32.932;-117.130;2023-02-03T07:21:54;101911.84;;;15.29;49.24
60897;BME280;46749;32.932;-117.130;2023-02-03T07:24:20;101887.41;;;15.28;49.36
60897;BME280;46749;32.932;-117.130;2023-02-03T07:26:47;101890.84;;;15.27;49.26
60897;BME280;46749;32.932;-117.130;2023-02-03T07:29:13;101895.25;;;15.28;49.18
60897;BME280;46749;32.932;-117.130;2023-02-03T07:31:39;101907.44;;;15.28;49.28
60897;BME280;46749;32.932;-117.130;2023-02-03T07:34:05;101896.97;;;15.28;49.00
60897;BME280;46749;32.932;-117.130;2023-02-03T07:36:32;101910.94;;;15.28;49.12
60897;BME280;46749;32.932;-117.130;2023-02-03T07:38:58;101903.94;;;15.27;49.10
60897;BME280;46749;32.932;-117.130;2023-02-03T07:41:24;101903.03;;;15.27;48.78
60897;BME280;46749;32.932;-117.130;2023-02-03T07:43:50;101909.19;;;15.27;48.86
60897;BME280;46749;32.932;-117.130;2023-02-03T07:46:17;101907.38;;;15.26;48.98
60897;BME280;46749;32.932;-117.130;2023-02-03T07:48:43;101907.38;;;15.26;49.13
60897;BME280;46749;32.932;-117.130;2023-02-03T07:51:09;101907.38;;;15.26;48.94
60897;BME280;46749;32.932;-117.130;2023-02-03T07:53:35;101904.75;;;15.26;48.85
60897;BME280;46749;32.932;-117.130;2023-02-03T07:56:03;101896.00;;;15.26;49.14
60897;BME280;46749;32.932;-117.130;2023-02-03T07:58:30;101908.22;;;15.25;49.03
60897;BME280;46749;32.932;-117.130;2023-02-03T08:00:57;101895.13;;;15.25;48.78
60897;BME280;46749;32.932;-117.130;2023-02-03T08:03:24;101875.91;;;15.25;49.14
60897;BME280;46749;32.932;-117.130;2023-02-03T08:05:50;101875.91;;;15.25;48.86
60897;BME280;46749;32.932;-117.130;2023-02-03T08:08:18;101882.88;;;15.24;48.87
60897;BME280;46749;32.932;-117.130;2023-02-03T08:10:44;101885.50;;;15.24;49.12
60897;BME280;46749;32.932;-117.130;2023-02-03T08:13:10;101888.09;;;15.24;48.83
60897;BME280;46749;32.932;-117.130;2023-02-03T08:15:36;101877.66;;;15.24;48.78
60897;BME280;46749;32.932;-117.130;2023-02-03T08:18:02;101874.13;;;15.24;48.89
60897;BME280;46749;32.932;-117.130;2023-02-03T08:20:29;101871.53;;;15.24;49.06
60897;BME280;46749;32.932;-117.130;2023-02-03T08:22:55;101862.78;;;15.23;48.68
60897;BME280;46749;32.932;-117.130;2023-02-03T08:25:21;101858.44;;;15.24;48.92
60897;BME280;46749;32.932;-117.130;2023-02-03T08:27:47;101862.78;;;15.23;48.83
60897;BME280;46749;32.932;-117.130;2023-02-03T08:30:14;101867.19;;;15.24;48.86
60897;BME280;46749;32.932;-117.130;2023-02-03T08:32:40;101852.31;;;15.23;48.89
60897;BME280;46749;32.932;-117.130;2023-02-03T08:37:31;101841.84;;;15.23;48.88
60897;BME280;46749;32.932;-117.130;2023-02-03T08:39:59;101847.09;;;15.23;48.80
60897;BME280;46749;32.932;-117.130;2023-02-03T08:42:25;101834.84;;;15.22;48.90
60897;BME280;46749;32.932;-117.130;2023-02-03T08:44:51;101820.88;;;15.22;48.89
60897;BME280;46749;32.932;-117.130;2023-02-03T08:47:18;101847.03;;;15.22;48.77
60897;BME280;46749;32.932;-117.130;2023-02-03T08:49:44;101836.56;;;15.22;48.88
60897;BME280;46749;32.932;-117.130;2023-02-03T08:52:11;101835.69;;;15.21;48.78
60897;BME280;46749;32.932;-117.130;2023-02-03T08:54:38;101835.69;;;15.21;48.90
60897;BME280;46749;32.932;-117.130;2023-02-03T08:57:05;101833.88;;;15.20;48.75
60897;BME280;46749;32.932;-117.130;2023-02-03T08:59:32;101826.03;;;15.20;48.81
60897;BME280;46749;32.932;-117.130;2023-02-03T09:02:04;101823.41;;;15.20;48.83
60897;BME280;46749;32.932;-117.130;2023-02-03T09:04:31;101819.06;;;15.21;48.79
60897;BME280;46749;32.932;-117.130;2023-02-03T09:06:59;101831.25;;;15.20;48.88
60897;BME280;46749;32.932;-117.130;2023-02-03T09:09:27;101813.81;;;15.21;48.92
60897;BME280;46749;32.932;-117.130;2023-02-03T09:12:13;101815.50;;;15.19;48.89
60897;BME280;46749;32.932;-117.130;2023-02-03T09:14:39;101815.56;;;15.20;48.82
60897;BME280;46749;32.932;-117.130;2023-02-03T09:17:06;101816.53;;;15.22;48.89
60897;BME280;46749;32.932;-117.130;2023-02-03T09:19:33;101808.59;;;15.21;48.79
60897;BME280;46749;32.932;-117.130;2023-02-03T09:21:59;101809.44;;;15.20;48.92
60897;BME280;46749;32.932;-117.130;2023-02-03T09:24:26;101814.66;;;15.20;48.92
60897;BME280;46749;32.932;-117.130;2023-02-03T09:26:53;101821.63;;;15.19;48.71
60897;BME280;46749;32.932;-117.130;2023-02-03T09:29:20;101815.50;;;15.19;48.91
60897;BME280;46749;32.932;-117.130;2023-02-03T09:31:50;101810.28;;;15.19;48.67
60897;BME280;46749;32.932;-117.130;2023-02-03T09:34:18;101799.75;;;15.17;48.85
60897;BME280;46749;32.932;-117.130;2023-02-03T09:36:45;101800.66;;;15.18;48.88
60897;BME280;46749;32.932;-117.130;2023-02-03T09:39:12;101792.78;;;15.18;48.92
60897;BME280;46749;32.932;-117.130;2023-02-03T09:42:03;101792.78;;;15.18;48.71
60897;BME280;46749;32.932;-117.130;2023-02-03T09:47:27;101810.28;;;15.19;48.74
60897;BME280;46749;32.932;-117.130;2023-02-03T09:50:02;101817.25;;;15.18;48.88
60897;BME280;46749;32.932;-117.130;2023-02-03T09:52:36;101814.63;;;15.18;49.05
60897;BME280;46749;32.932;-117.130;2023-02-03T09:58:03;101805.03;;;15.19;48.71
60897;BME280;46749;32.932;-117.130;2023-02-03T10:00:43;101793.69;;;15.18;48.63
60897;BME280;46749;32.932;-117.130;2023-02-03T10:03:31;101777.97;;;15.18;48.80
60897;BME280;46749;32.932;-117.130;2023-02-03T10:08:58;101751.81;;;15.18;48.78
60897;BME280;46749;32.932;-117.130;2023-02-03T10:14:31;101745.69;;;15.18;48.84
60897;BME280;46749;32.932;-117.130;2023-02-03T10:19:41;101752.66;;;15.17;48.90
60897;BME280;46749;32.932;-117.130;2023-02-03T10:22:14;101748.31;;;15.18;48.81
60897;BME280;46749;32.932;-117.130;2023-02-03T10:27:55;101735.28;;;15.19;48.59
60897;BME280;46749;32.932;-117.130;2023-02-03T10:30:26;101741.34;;;15.18;48.74
60897;BME280;46749;32.932;-117.130;2023-02-03T10:32:56;101732.63;;;15.18;48.72
60897;BME280;46749;32.932;-117.130;2023-02-03T10:35:34;101751.81;;;15.18;48.84
60897;BME280;46749;32.932;-117.130;2023-02-03T10:38:02;101750.94;;;15.18;48.80
60897;BME280;46749;32.932;-117.130;2023-02-03T10:40:30;101752.69;;;15.19;48.89
60897;BME280;46749;32.932;-117.130;2023-02-03T10:42:56;101749.19;;;15.18;48.80
60897;BME280;46749;32.932;-117.130;2023-02-03T10:45:41;101755.28;;;15.17;48.70
60897;BME280;46749;32.932;-117.130;2023-02-03T10:48:14;101751.81;;;15.18;48.67
60897;BME280;46749;32.932;-117.130;2023-02-03T10:50:47;101761.41;;;15.18;48.84
60897;BME280;46749;32.932;-117.130;2023-02-03T10:53:22;101757.91;;;15.17;48.66
60897;BME280;46749;32.932;-117.130;2023-02-03T10:56:04;101770.97;;;15.17;48.76
60897;BME280;46749;32.932;-117.130;2023-02-03T10:58:32;101768.41;;;15.19;48.46
60897;BME280;46749;32.932;-117.130;2023-02-03T11:01:14;101750.94;;;15.18;48.59
60897;BME280;46749;32.932;-117.130;2023-02-03T11:04:03;101757.06;;;15.18;48.75
60897;BME280;46749;32.932;-117.130;2023-02-03T11:06:29;101776.25;;;15.19;48.82
60897;BME280;46749;32.932;-117.130;2023-02-03T11:08:56;101801.53;;;15.18;48.61
60897;BME280;46749;32.932;-117.130;2023-02-03T11:11:28;101818.06;;;15.17;48.78
60897;BME280;46749;32.932;-117.130;2023-02-03T11:16:34;101837.28;;;15.18;48.76
60897;BME280;46749;32.932;-117.130;2023-02-03T11:19:02;101833.81;;;15.19;48.82
60897;BME280;46749;32.932;-117.130;2023-02-03T11:24:21;101814.63;;;15.18;48.88
60897;BME280;46749;32.932;-117.130;2023-02-03T11:26:59;101805.03;;;15.19;49.05
60897;BME280;46749;32.932;-117.130;2023-02-03T11:29:33;101816.41;;;15.19;49.03
60897;BME280;46749;32.932;-117.130;2023-02-03T11:35:15;101805.03;;;15.19;49.05
60897;BME280;46749;32.932;-117.130;2023-02-03T11:37:45;101799.81;;;15.19;48.89
60897;BME280;46749;32.932;-117.130;2023-02-03T11:42:59;101776.22;;;15.17;48.73
60897;BME280;46749;32.932;-117.130;2023-02-03T11:45:36;101793.69;;;15.18;48.91
60897;BME280;46749;32.932;-117.130;2023-02-03T11:53:29;101783.22;;;15.18;48.91
60897;BME280;46749;32.932;-117.130;2023-02-03T12:04:28;101785.88;;;15.20;48.99
60897;BME280;46749;32.932;-117.130;2023-02-03T12:10:21;101787.56;;;15.18;49.04
60897;BME280;46749;32.932;-117.130;2023-02-03T12:18:39;101789.28;;;15.17;48.89
60897;BME280;46749;32.932;-117.130;2023-02-03T12:21:40;101791.03;;;15.17;48.86
60897;BME280;46749;32.932;-117.130;2023-02-03T12:27:20;101800.66;;;15.18;49.04
60897;BME280;46749;32.932;-117.130;2023-02-03T12:30:01;101797.16;;;15.17;49.07
60897;BME280;46749;32.932;-117.130;2023-02-03T12:32:49;101800.59;;;15.16;49.13
60897;BME280;46749;32.932;-117.130;2023-02-03T12:38:38;101816.31;;;15.16;49.06
60897;BME280;46749;32.932;-117.130;2023-02-03T12:40:58;101816.31;;;15.16;48.92
60897;BME280;46749;32.932;-117.130;2023-02-03T12:43:40;101824.16;;;15.16;49.28
60897;BME280;46749;32.932;-117.130;2023-02-03T12:49:17;101822.44;;;15.17;48.86
60897;BME280;46749;32.932;-117.130;2023-02-03T12:51:53;101838.13;;;15.17;48.92
60897;BME280;46749;32.932;-117.130;2023-02-03T12:54:54;101841.63;;;15.17;48.96
60897;BME280;46749;32.932;-117.130;2023-02-03T13:02:29;101884.34;;;15.16;49.48
60897;BME280;46749;32.932;-117.130;2023-02-03T13:05:08;101882.56;;;15.15;49.13
60897;BME280;46749;32.932;-117.130;2023-02-03T13:08:06;101883.44;;;15.16;49.44
60897;BME280;46749;32.932;-117.130;2023-02-03T13:10:53;101878.22;;;15.16;49.48
60897;BME280;46749;32.932;-117.130;2023-02-03T13:13:28;101883.44;;;15.16;49.37
60897;BME280;46749;32.932;-117.130;2023-02-03T13:15:57;101861.63;;;15.15;49.31
60897;BME280;46749;32.932;-117.130;2023-02-03T13:18:28;101859.06;;;15.17;49.26
60897;BME280;46749;32.932;-117.130;2023-02-03T13:20:56;101852.94;;;15.16;49.14
60897;BME280;46749;32.932;-117.130;2023-02-03T13:23:23;101856.41;;;15.15;49.41
60897;BME280;46749;32.932;-117.130;2023-02-03T13:26:03;101861.56;;;15.14;49.26
60897;BME280;46749;32.932;-117.130;2023-02-03T13:34:08;101853.88;;;15.18;49.32
60897;BME280;46749;32.932;-117.130;2023-02-03T13:47:34;101887.78;;;15.15;49.38
60897;BME280;46749;32.932;-117.130;2023-02-03T13:50:04;101890.34;;;15.14;49.32
60897;BME280;46749;32.932;-117.130;2023-02-03T13:55:55;101869.41;;;15.14;49.35
60897;BME280;46749;32.932;-117.130;2023-02-03T13:58:27;101874.72;;;15.15;49.35
60897;BME280;46749;32.932;-117.130;2023-02-03T14:01:04;101896.47;;;15.14;49.12
60897;BME280;46749;32.932;-117.130;2023-02-03T14:05:57;101896.47;;;15.14;49.43
60897;BME280;46749;32.932;-117.130;2023-02-03T14:16:35;101898.25;;;15.15;49.48
60897;BME280;46749;32.932;-117.130;2023-02-03T14:19:02;101900.78;;;15.14;49.23
60897;BME280;46749;32.932;-117.130;2023-02-03T14:21:37;101891.22;;;15.14;49.28
60897;BME280;46749;32.932;-117.130;2023-02-03T14:24:08;101891.22;;;15.14;49.06
60897;BME280;46749;32.932;-117.130;2023-02-03T14:26:42;101898.25;;;15.15;49.49
60897;BME280;46749;32.932;-117.130;2023-02-03T14:29:22;101911.28;;;15.14;49.37
60897;BME280;46749;32.932;-117.130;2023-02-03T14:32:00;101931.31;;;15.13;49.37
60897;BME280;46749;32.932;-117.130;2023-02-03T14:34:33;101908.66;;;15.14;49.25
60897;BME280;46749;32.932;-117.130;2023-02-03T14:37:24;101878.09;;;15.13;49.46
60897;BME280;46749;32.932;-117.130;2023-02-03T14:51:45;101913.00;;;15.13;49.44